Time;durP1;ratioP1;P1;durP2;ratioP2;P2;SDS_P1;SDS_P2;PMS_P1;PMS_P2;Temp;Humidity;BMP_temperature;BMP_pressure;BME280_temperature;BME280_humidity;BME280_pressure;Samples;Min_cycle;Max_cycle;Signal;HPM_P1;HPM_P2
2023/06/15 00:00:42;;;;;;;18.30;8.35;;;;;;;15.04;100.00;101310.97;6245932;23;20088;-86
2023/06/15 00:03:07;;;;;;;15.35;8.15;;;;;;;15.14;100.00;101324.22;6221030;23;20035;-88
2023/06/15 00:05:33;;;;;;;12.93;7.55;;;;;;;15.11;100.00;101320.03;6220843;23;20054;-87
2023/06/15 00:07:58;;;;;;;15.43;8.13;;;;;;;15.12;100.00;101334.41;6245559;23;20011;-89
2023/06/15 00:10:24;;;;;;;13.80;8.02;;;;;;;15.17;100.00;101329.25;6195698;23;20451;-86
2023/06/15 00:12:50;;;;;;;14.73;7.65;;;;;;;15.14;100.00;101333.19;6195376;23;20043;-90
2023/06/15 00:15:16;;;;;;;14.27;7.07;;;;;;;15.14;100.00;101332.34;6245360;23;20037;-89
2023/06/15 00:17:42;;;;;;;16.20;8.10;;;;;;;15.15;100.00;101318.59;6220340;23;20012;-87
2023/06/15 00:20:08;;;;;;;11.40;6.97;;;;;;;15.23;100.00;101328.47;6220649;23;20091;-88
2023/06/15 00:22:37;;;;;;;14.50;7.45;;;;;;;15.27;100.00;101328.91;6220737;23;20000;-88
2023/06/15 00:25:03;;;;;;;15.23;8.15;;;;;;;15.21;100.00;101314.28;6220378;23;20004;-88
2023/06/15 00:27:29;;;;;;;16.05;7.70;;;;;;;15.33;100.00;101329.00;6220689;23;20127;-87
2023/06/15 00:29:54;;;;;;;16.05;7.95;;;;;;;15.32;100.00;101324.63;6195457;23;20035;-86
2023/06/15 00:32:20;;;;;;;12.02;6.85;;;;;;;15.37;100.00;101319.47;6195380;23;20004;-88
2023/06/15 00:34:46;;;;;;;14.32;7.63;;;;;;;15.42;100.00;101320.75;6221011;23;20007;-88
2023/06/15 00:37:11;;;;;;;13.10;6.95;;;;;;;15.44;100.00;101333.06;6195447;23;20031;-89
2023/06/15 00:39:37;;;;;;;10.88;6.03;;;;;;;15.43;100.00;101327.81;6245758;23;20103;-88
2023/06/15 00:42:03;;;;;;;13.32;7.28;;;;;;;15.40;100.00;101318.25;6195502;23;20420;-88
2023/06/15 00:44:28;;;;;;;12.95;7.15;;;;;;;15.47;100.00;101329.13;6195025;23;20452;-88
2023/06/15 00:46:55;;;;;;;13.05;7.18;;;;;;;15.44;100.00;101324.09;6220081;23;20062;-87
2023/06/15 00:49:21;;;;;;;11.48;6.32;;;;;;;15.64;100.00;101329.69;6245246;23;20019;-90
2023/06/15 00:51:47;;;;;;;15.18;6.97;;;;;;;15.64;100.00;101329.69;6246862;23;20039;-89
2023/06/15 00:54:14;;;;;;;7.20;3.83;;;;;;;15.63;100.00;101326.16;6195070;23;20016;-87
2023/06/15 00:56:40;;;;;;;11.48;7.07;;;;;;;15.63;100.00;101322.59;6245577;23;20000;-86
2023/06/15 00:59:06;;;;;;;13.93;7.55;;;;;;;15.66;100.00;101320.31;6195567;23;20022;-88
2023/06/15 01:01:31;;;;;;;14.23;7.00;;;;;;;15.64;100.00;101326.97;6205616;23;20008;-86
2023/06/15 01:03:59;;;;;;;13.40;6.63;;;;;;;15.67;100.00;101324.72;6208536;23;20050;-83
2023/06/15 01:06:31;;;;;;;13.30;7.50;;;;;;;15.72;100.00;101335.03;6195175;23;20008;-87
2023/06/15 01:09:03;;;;;;;11.85;6.50;;;;;;;15.69;100.00;101330.84;6221621;23;20091;-88
2023/06/15 01:11:30;;;;;;;12.23;6.60;;;;;;;15.69;100.00;101333.53;6246783;22;20007;-87
2023/06/15 01:13:57;;;;;;;13.05;6.90;;;;;;;15.73;100.00;101345.66;6195115;23;20336;-87
2023/06/15 01:16:28;;;;;;;11.65;7.25;;;;;;;15.74;100.00;101341.91;6245549;23;20500;-85
2023/06/15 01:18:59;;;;;;;13.10;7.45;;;;;;;15.71;100.00;101325.19;6245727;23;20000;-85
2023/06/15 01:21:29;;;;;;;10.93;6.93;;;;;;;15.79;100.00;101342.16;6195806;23;20000;-89
2023/06/15 01:24:06;;;;;;;12.35;7.03;;;;;;;15.77;100.00;101333.41;6244957;23;20039;-90
2023/06/15 01:26:33;;;;;;;12.32;7.30;;;;;;;15.69;100.00;101327.25;6244829;23;20068;-90
2023/06/15 01:28:59;;;;;;;13.77;7.30;;;;;;;15.70;100.00;101339.81;6245343;23;20006;-88
2023/06/15 01:31:25;;;;;;;13.95;6.88;;;;;;;15.71;100.00;101336.03;6245050;23;20014;-88
2023/06/15 01:33:51;;;;;;;11.35;7.07;;;;;;;15.68;100.00;101337.25;6245226;23;20001;-85
2023/06/15 01:36:18;;;;;;;15.40;6.80;;;;;;;15.69;100.00;101347.09;6220148;23;20050;-88
2023/06/15 01:38:48;;;;;;;13.60;6.72;;;;;;;15.68;100.00;101339.94;6245042;23;20333;-88
2023/06/15 01:41:14;;;;;;;10.98;6.63;;;;;;;15.58;100.00;101334.84;6244659;23;20008;-89
2023/06/15 01:43:40;;;;;;;12.82;6.78;;;;;;;15.67;100.00;101340.16;6194499;23;20011;-86
2023/06/15 01:46:06;;;;;;;11.52;7.00;;;;;;;15.67;100.00;101349.13;6194495;23;20008;-87
2023/06/15 01:48:32;;;;;;;11.65;6.32;;;;;;;15.66;100.00;101352.03;6219876;23;20058;-90
2023/06/15 01:50:58;;;;;;;12.43;7.47;;;;;;;15.64;100.00;101352.22;6194884;23;20000;-83
2023/06/15 01:53:24;;;;;;;9.80;6.40;;;;;;;15.60;100.00;101345.50;6245261;23;20004;-87
2023/06/15 01:55:50;;;;;;;11.40;5.53;;;;;;;15.53;100.00;101337.34;6194707;23;20039;-88
2023/06/15 01:58:16;;;;;;;10.23;5.35;;;;;;;15.43;100.00;101327.81;6194566;23;20016;-84
2023/06/15 02:00:43;;;;;;;11.10;6.43;;;;;;;15.60;100.00;101348.22;6219585;23;20012;-90
2023/06/15 02:03:09;;;;;;;10.63;6.75;;;;;;;15.60;100.00;101350.94;6244995;23;20091;-87
2023/06/15 02:05:39;;;;;;;9.88;6.68;;;;;;;15.54;100.00;101340.88;6194636;23;20000;-87
2023/06/15 02:08:10;;;;;;;9.70;5.50;;;;;;;15.68;100.00;101360.81;6195597;23;20302;-84
2023/06/15 02:10:37;;;;;;;12.52;6.70;;;;;;;15.60;100.00;101324.66;6244909;23;20095;-89
2023/06/15 02:13:06;;;;;;;12.43;5.82;;;;;;;15.61;100.00;101333.63;6221299;23;20004;-88
2023/06/15 02:15:31;;;;;;;9.98;6.43;;;;;;;15.67;100.00;101345.59;6247239;23;20010;-89
2023/06/15 02:18:00;;;;;;;13.75;7.13;;;;;;;15.64;100.00;101349.53;6196410;23;20018;-90
2023/06/15 02:20:29;;;;;;;10.55;6.55;;;;;;;15.63;100.00;101349.72;6197280;23;20008;-87
2023/06/15 02:22:57;;;;;;;10.48;6.53;;;;;;;15.60;100.00;101348.22;6246586;23;20075;-89
2023/06/15 02:25:27;;;;;;;10.48;6.47;;;;;;;15.65;100.00;101355.78;6246514;23;20104;-89
2023/06/15 02:27:53;;;;;;;11.48;5.93;;;;;;;15.63;100.00;101352.41;6221411;23;20004;-84
2023/06/15 02:30:20;;;;;;;13.15;6.85;;;;;;;15.55;100.00;101345.25;6246781;23;20103;-87
2023/06/15 02:32:48;;;;;;;8.50;5.60;;;;;;;15.51;100.00;101346.69;6246320;23;20139;-85
2023/06/15 02:35:14;;;;;;;10.35;6.22;;;;;;;15.59;100.00;101352.81;6196749;23;20459;-88
2023/06/15 02:37:40;;;;;;;10.18;5.40;;;;;;;15.60;100.00;101349.06;6196438;23;19996;-88
2023/06/15 02:40:07;;;;;;;11.23;5.97;;;;;;;15.60;100.00;101348.22;6197134;23;20341;-88
2023/06/15 02:42:33;;;;;;;10.60;6.38;;;;;;;15.56;100.00;101349.66;6246572;23;20019;-85
2023/06/15 02:44:59;;;;;;;12.63;5.93;;;;;;;15.55;100.00;101351.50;6246454;23;20063;-88
2023/06/15 02:47:25;;;;;;;10.32;6.07;;;;;;;15.53;100.00;101348.19;6196329;23;20019;-89
2023/06/15 02:49:50;;;;;;;11.32;6.45;;;;;;;15.46;100.00;101338.31;6196372;23;20007;-84
2023/06/15 02:52:16;;;;;;;11.63;5.82;;;;;;;15.52;100.00;101353.78;6196164;23;20015;-87
2023/06/15 02:54:42;;;;;;;9.68;5.55;;;;;;;15.52;100.00;101356.50;6246369;23;20038;-88
2023/06/15 02:57:08;;;;;;;9.80;6.30;;;;;;;15.53;100.00;101353.59;6196189;23;20004;-88
2023/06/15 02:59:35;;;;;;;10.93;5.90;;;;;;;15.34;100.00;101329.84;6221637;23;20062;-90
2023/06/15 03:02:04;;;;;;;12.77;6.43;;;;;;;15.53;100.00;101355.44;6196537;23;20016;-87
2023/06/15 03:04:30;;;;;;;9.95;6.22;;;;;;;15.29;100.00;101307.91;6246297;23;20054;-89
2023/06/15 03:06:57;;;;;;;8.80;5.45;;;;;;;15.52;100.00;101353.78;6196890;23;20004;-89
2023/06/15 03:09:23;;;;;;;11.25;6.38;;;;;;;15.51;100.00;101343.97;6246474;23;20058;-87
2023/06/15 03:11:50;;;;;;;10.50;6.45;;;;;;;15.44;100.00;101346.63;6221232;23;20440;-86
2023/06/15 03:14:20;;;;;;;12.73;6.53;;;;;;;15.51;100.00;101346.69;6246011;23;20012;-85
2023/06/15 03:16:47;;;;;;;10.15;6.30;;;;;;;15.51;100.00;101350.22;6246185;23;20008;-86
2023/06/15 03:19:16;;;;;;;12.20;6.57;;;;;;;15.49;100.00;101346.03;6220993;23;20001;-83
2023/06/15 03:21:42;;;;;;;9.63;6.32;;;;;;;15.51;100.00;101343.97;6195955;23;20329;-82
2023/06/15 03:24:08;;;;;;;12.20;6.65;;;;;;;15.45;100.00;101333.91;6247530;23;20463;-86
2023/06/15 03:26:39;;;;;;;11.25;6.10;;;;;;;15.57;100.00;101354.88;6235074;23;20084;-87
2023/06/15 03:29:05;;;;;;;9.27;6.15;;;;;;;15.58;100.00;101347.56;6230413;23;20016;-88
2023/06/15 03:31:33;;;;;;;10.35;6.10;;;;;;;15.58;100.00;101348.41;6220812;23;20008;-88
2023/06/15 03:34:02;;;;;;;9.88;6.15;;;;;;;15.46;100.00;101333.72;6196202;23;20004;-88
2023/06/15 03:36:31;;;;;;;9.82;6.20;;;;;;;15.56;100.00;101349.66;6221107;23;20000;-88
2023/06/15 03:38:57;;;;;;;11.23;6.88;;;;;;;15.54;100.00;101346.31;6196540;23;20022;-88
2023/06/15 03:41:23;;;;;;;10.43;6.63;;;;;;;15.53;100.00;101339.19;6195702;23;20004;-88
2023/06/15 03:43:49;;;;;;;10.18;6.82;;;;;;;15.55;100.00;101354.22;6246129;23;20042;-88
2023/06/15 03:46:15;;;;;;;11.00;6.80;;;;;;;15.49;100.00;101346.88;6195940;23;20008;-85
2023/06/15 03:48:41;;;;;;;10.32;6.30;;;;;;;15.48;100.00;101352.47;6246232;23;20000;-83
2023/06/15 03:51:06;;;;;;;11.77;6.72;;;;;;;15.48;100.00;101342.50;6195999;23;20096;-88
2023/06/15 03:53:32;;;;;;;10.13;6.18;;;;;;;15.49;100.00;101344.16;6196008;23;20023;-88
2023/06/15 03:55:57;;;;;;;11.77;7.25;;;;;;;15.49;100.00;101343.31;6195963;23;20012;-85
2023/06/15 03:58:26;;;;;;;13.32;6.78;;;;;;;15.49;100.00;101348.75;6196068;23;20376;-87
2023/06/15 04:00:52;;;;;;;12.07;6.13;;;;;;;15.44;100.00;101346.63;6247485;22;20035;-88
2023/06/15 04:03:18;;;;;;;11.27;7.13;;;;;;;15.44;100.00;101340.38;6195632;23;20004;-84
2023/06/15 04:05:45;;;;;;;11.57;6.93;;;;;;;15.47;100.00;101346.22;6170630;23;20011;-88
2023/06/15 04:08:12;;;;;;;11.23;6.35;;;;;;;15.51;100.00;101352.13;6220966;23;19996;-86
2023/06/15 04:10:38;;;;;;;13.20;6.82;;;;;;;15.48;100.00;101349.75;6220422;23;20003;-89
2023/06/15 04:13:04;;;;;;;13.13;7.22;;;;;;;15.50;100.00;101350.41;6170151;23;20011;-85
2023/06/15 04:15:30;;;;;;;13.52;7.32;;;;;;;15.48;100.00;101352.47;6195283;23;20062;-87
2023/06/15 04:18:00;;;;;;;13.20;7.55;;;;;;;15.43;100.00;101352.22;6170745;23;20020;-86
2023/06/15 04:20:31;;;;;;;11.52;7.20;;;;;;;15.44;100.00;101357.44;6221641;23;20000;-88
2023/06/15 04:22:57;;;;;;;11.68;6.88;;;;;;;15.43;100.00;101354.94;6220312;23;20000;-88
2023/06/15 04:25:23;;;;;;;14.88;7.28;;;;;;;15.49;100.00;101355.00;6219937;23;20011;-87
2023/06/15 04:27:49;;;;;;;12.98;7.65;;;;;;;15.40;100.00;101345.34;6170187;23;20328;-87
2023/06/15 04:30:16;;;;;;;13.88;7.47;;;;;;;15.56;100.00;101360.50;6219884;23;20434;-90
2023/06/15 04:32:43;;;;;;;13.60;7.35;;;;;;;15.52;100.00;101360.03;6219794;23;20003;-86
2023/06/15 04:35:17;;;;;;;14.30;7.70;;;;;;;15.51;100.00;101365.66;6170275;23;20038;-85
2023/06/15 04:37:44;;;;;;;11.70;6.78;;;;;;;15.47;100.00;101340.81;6221450;23;20401;-87
2023/06/15 04:40:10;;;;;;;13.00;7.03;;;;;;;15.58;100.00;101353.81;6220805;23;20371;-86
2023/06/15 04:42:40;;;;;;;7.80;5.03;;;;;;;15.64;100.00;101354.94;6180006;23;20063;-85
2023/06/15 04:45:07;;;;;;;10.52;5.97;;;;;;;15.71;100.00;101355.84;6244558;23;20357;-84
2023/06/15 04:47:32;;;;;;;11.60;7.03;;;;;;;15.80;100.00;101359.28;6206716;23;20052;-87
2023/06/15 04:49:58;;;;;;;12.90;7.43;;;;;;;15.86;100.00;101360.38;6170388;23;20016;-82
2023/06/15 04:52:24;;;;;;;15.07;6.80;;;;;;;15.92;100.00;101359.59;6170208;23;20008;-86
2023/06/15 04:54:49;;;;;;;12.70;6.68;;;;;;;15.99;100.00;101365.91;6170141;23;20011;-84
2023/06/15 04:57:15;;;;;;;14.20;8.18;;;;;;;16.04;100.00;101368.88;6194834;23;20012;-86
2023/06/15 04:59:41;;;;;;;12.18;6.50;;;;;;;16.07;100.00;101370.34;6170073;23;20421;-86
2023/06/15 05:02:07;;;;;;;14.73;7.45;;;;;;;16.11;100.00;101372.44;6216435;23;20062;-85
2023/06/15 05:04:33;;;;;;;13.52;6.78;;;;;;;16.09;100.00;101365.53;6245039;23;20004;-86
2023/06/15 05:06:59;;;;;;;14.50;7.03;;;;;;;16.14;100.00;101365.78;6194954;23;20329;-87
2023/06/15 05:09:24;;;;;;;16.92;8.05;;;;;;;16.17;100.00;101371.69;6194971;23;20321;-85
2023/06/15 05:11:50;;;;;;;14.68;7.53;;;;;;;16.22;100.00;101368.34;6195043;23;20008;-85
2023/06/15 05:14:16;;;;;;;14.05;7.68;;;;;;;16.24;100.00;101374.44;6194793;23;20427;-85
2023/06/15 05:16:41;;;;;;;15.45;7.93;;;;;;;16.27;100.00;101372.16;6194689;23;20004;-85
2023/06/15 05:19:07;;;;;;;12.63;7.63;;;;;;;16.18;100.00;101351.63;6194873;23;20031;-85
2023/06/15 05:21:33;;;;;;;15.32;8.35;;;;;;;16.29;100.00;101369.25;6245934;22;20075;-86
2023/06/15 05:23:58;;;;;;;14.50;7.65;;;;;;;16.35;100.00;101378.47;6194200;23;20011;-87
2023/06/15 05:26:25;;;;;;;13.07;7.35;;;;;;;16.35;100.00;101376.56;6194444;23;20341;-85
2023/06/15 05:28:51;;;;;;;13.13;7.35;;;;;;;16.36;100.00;101378.28;6220166;23;20000;-87
2023/06/15 05:31:17;;;;;;;13.90;7.38;;;;;;;16.37;100.00;101381.81;6244538;23;20018;-85
2023/06/15 05:33:42;;;;;;;11.95;6.30;;;;;;;16.34;100.00;101382.22;6219748;23;20066;-86
2023/06/15 05:36:08;;;;;;;13.68;7.57;;;;;;;16.35;100.00;101381.16;6244709;23;20027;-86
2023/06/15 05:38:34;;;;;;;13.20;7.70;;;;;;;16.35;100.00;101378.47;6194548;23;20055;-86
2023/06/15 05:41:00;;;;;;;13.00;7.43;;;;;;;16.33;100.00;101383.28;6244944;23;20004;-86
2023/06/15 05:43:26;;;;;;;11.43;7.18;;;;;;;16.32;100.00;101384.28;6244780;23;20443;-84
2023/06/15 05:45:51;;;;;;;13.20;7.65;;;;;;;16.28;100.00;101383.84;6245023;23;20012;-83
2023/06/15 05:48:19;;;;;;;12.07;7.43;;;;;;;16.22;100.00;101361.06;6199467;23;20019;-83
2023/06/15 05:50:45;;;;;;;13.25;6.75;;;;;;;16.39;100.00;101393.31;6253920;23;20066;-84
2023/06/15 05:53:11;;;;;;;12.23;7.28;;;;;;;16.39;100.00;101390.59;6249303;23;20014;-88
2023/06/15 05:55:36;;;;;;;11.77;7.45;;;;;;;16.43;100.00;101400.00;6196704;23;20012;-85
2023/06/15 05:58:02;;;;;;;10.10;6.78;;;;;;;16.39;100.00;101382.47;6196570;23;20008;-85
2023/06/15 06:00:30;;;;;;;14.32;7.07;;;;;;;16.47;100.00;101399.44;6196543;23;20378;-89
2023/06/15 06:02:59;;;;;;;16.50;7.95;;;;;;;16.53;100.00;101391.53;6196930;23;20065;-87
2023/06/15 06:05:25;;;;;;;12.40;7.22;;;;;;;16.54;100.00;101402.19;6196347;23;20008;-85
2023/06/15 06:07:50;;;;;;;12.70;8.23;;;;;;;16.48;100.00;101403.84;6196758;23;20016;-85
2023/06/15 06:10:22;;;;;;;13.52;7.63;;;;;;;16.46;100.00;101400.47;6196639;23;20004;-84
2023/06/15 06:12:48;;;;;;;14.93;7.55;;;;;;;16.48;100.00;101409.25;6221108;23;20354;-86
2023/06/15 06:15:14;;;;;;;14.88;7.70;;;;;;;16.53;100.00;101407.81;6196052;23;20012;-87
2023/06/15 06:17:41;;;;;;;14.13;8.48;;;;;;;16.55;100.00;101403.03;6196367;23;20103;-84
2023/06/15 06:20:07;;;;;;;12.57;8.00;;;;;;;16.57;100.00;101401.78;6196212;23;20015;-85
2023/06/15 06:22:33;;;;;;;17.08;7.88;;;;;;;16.54;100.00;101407.63;6245946;23;20437;-84
2023/06/15 06:24:58;;;;;;;10.70;6.68;;;;;;;16.56;100.00;101410.13;6196111;23;20008;-85
2023/06/15 06:27:24;;;;;;;14.65;7.85;;;;;;;16.51;100.00;101413.44;6196352;23;20039;-85
2023/06/15 06:29:51;;;;;;;12.63;8.45;;;;;;;16.49;100.00;101415.53;6196322;23;20015;-84
2023/06/15 06:32:17;;;;;;;15.52;8.70;;;;;;;16.38;100.00;101406.06;6196478;23;20018;-88
2023/06/15 06:34:43;;;;;;;15.23;8.60;;;;;;;16.39;100.00;101413.16;6197223;23;20035;-82
2023/06/15 06:37:08;;;;;;;15.27;8.35;;;;;;;16.40;100.00;101411.28;6198992;23;20012;-84
2023/06/15 06:39:34;;;;;;;14.82;8.85;;;;;;;16.45;100.00;101420.50;6238084;23;19990;-81
2023/06/15 06:42:00;;;;;;;15.02;8.90;;;;;;;16.44;100.00;101415.28;6214152;23;20039;-84
2023/06/15 06:44:26;;;;;;;14.30;8.57;;;;;;;16.45;100.00;101422.38;6246718;23;20004;-85
2023/06/15 06:46:52;;;;;;;13.50;8.40;;;;;;;16.50;100.00;101425.34;6195781;23;20511;-82
2023/06/15 06:49:18;;;;;;;14.25;8.32;;;;;;;16.55;100.00;101416.59;6221271;23;20008;-84
2023/06/15 06:51:44;;;;;;;13.27;7.30;;;;;;;16.57;100.00;101407.22;6220994;23;20448;-83
2023/06/15 06:54:09;;;;;;;16.88;9.45;;;;;;;16.69;100.00;101429.22;6195699;23;20008;-81
2023/06/15 06:56:35;;;;;;;12.68;7.55;;;;;;;16.69;100.00;101419.19;6196078;23;20083;-87
2023/06/15 06:59:01;;;;;;;13.73;8.02;;;;;;;16.70;100.00;101420.03;6195288;23;20004;-85
2023/06/15 07:01:28;;;;;;;11.85;7.47;;;;;;;16.72;100.00;101423.38;6221107;23;20021;-86
2023/06/15 07:03:53;;;;;;;12.02;6.72;;;;;;;16.64;100.00;101418.09;6195805;23;20019;-84
2023/06/15 07:06:19;;;;;;;12.93;8.32;;;;;;;16.59;100.00;101413.31;6194821;23;20457;-85
2023/06/15 07:08:46;;;;;;;11.25;7.50;;;;;;;16.60;100.00;101412.25;6195868;23;20011;-84
2023/06/15 07:11:13;;;;;;;12.82;8.00;;;;;;;16.58;100.00;101408.06;6246049;23;20011;-85
2023/06/15 07:13:40;;;;;;;14.10;8.20;;;;;;;16.57;100.00;101399.06;6245376;23;20027;-84
2023/06/15 07:16:06;;;;;;;13.07;8.27;;;;;;;16.73;100.00;101410.66;6246109;23;20016;-86
2023/06/15 07:18:32;;;;;;;13.30;8.23;;;;;;;16.72;100.00;101409.78;6221061;23;20011;-88
2023/06/15 07:20:57;;;;;;;16.88;9.02;;;;;;;16.75;100.00;101405.84;6220472;23;20012;-85
2023/06/15 07:23:24;;;;;;;16.77;9.50;;;;;;;16.82;100.00;101409.47;6245949;23;20012;-83
2023/06/15 07:25:50;;;;;;;13.00;8.20;;;;;;;16.88;100.00;101419.53;6245746;23;20460;-88
2023/06/15 07:28:16;;;;;;;16.08;9.27;;;;;;;16.88;100.00;101414.09;6246140;23;20085;-87
2023/06/15 07:30:43;;;;;;;15.02;8.40;;;;;;;16.86;100.00;101416.19;6246050;23;20000;-86
2023/06/15 07:33:09;;;;;;;14.30;7.90;;;;;;;16.92;100.00;101412.66;6196053;23;20036;-84
2023/06/15 07:35:37;;;;;;;15.30;7.88;;;;;;;17.04;100.00;101424.63;6196151;23;20062;-86
2023/06/15 07:38:03;;;;;;;15.27;9.23;;;;;;;17.19;100.00;101424.47;6195076;23;20058;-85
2023/06/15 07:40:29;;;;;;;18.50;9.45;;;;;;;17.21;100.00;101425.13;6170196;23;20012;-84
2023/06/15 07:42:55;;;;;;;18.23;9.30;;;;;;;17.31;100.00;101416.59;6195477;23;20061;-86
2023/06/15 07:45:21;;;;;;;15.77;8.68;;;;;;;17.56;100.00;101423.13;6220727;23;20008;-87
2023/06/15 07:47:47;;;;;;;12.85;6.35;;;;;;;17.71;100.00;101427.56;6194902;23;20031;-84
2023/06/15 07:50:13;;;;;;;9.90;6.07;;;;;;;17.85;100.00;101439.31;6244370;23;20003;-82
2023/06/15 07:52:38;;;;;;;16.63;9.20;;;;;;;17.96;100.00;101433.25;6193304;23;20004;-86
2023/06/15 07:55:05;;;;;;;14.73;9.05;;;;;;;18.18;100.00;101437.47;6195509;23;20008;-85
2023/06/15 07:57:30;;;;;;;17.95;10.05;;;;;;;18.30;100.00;101442.25;6195111;23;20318;-86
2023/06/15 07:59:58;;;;;;;17.48;8.45;;;;;;;18.31;100.00;101439.34;6219948;23;20040;-86
2023/06/15 08:02:23;;;;;;;16.70;9.15;;;;;;;18.33;100.00;101437.22;6245287;23;20015;-87
2023/06/15 08:04:49;;;;;;;15.52;8.65;;;;;;;18.41;100.00;101441.63;6197455;23;20004;-83
2023/06/15 08:07:15;;;;;;;12.43;7.90;;;;;;;18.41;100.00;101436.19;6230319;23;20432;-83
2023/06/15 08:09:41;;;;;;;12.32;8.05;;;;;;;18.51;100.00;101446.66;6245067;23;20425;-86
2023/06/15 08:12:08;;;;;;;18.23;8.73;;;;;;;18.56;100.00;101431.34;6244017;23;20035;-83
2023/06/15 08:14:35;;;;;;;16.30;8.57;;;;;;;18.71;100.00;101435.69;6245387;23;20042;-85
2023/06/15 08:17:01;;;;;;;14.00;8.40;;;;;;;18.82;100.00;101425.03;6247054;22;20004;-86
2023/06/15 08:19:27;;;;;;;13.38;8.20;;;;;;;18.98;100.00;101420.16;6245563;23;20004;-84
2023/06/15 08:21:53;;;;;;;12.73;7.28;;;;;;;19.17;100.00;101432.88;6245013;23;20028;-85
2023/06/15 08:24:18;;;;;;;12.10;7.65;;;;;;;19.44;100.00;101441.75;6245556;23;20008;-86
2023/06/15 08:26:45;;;;;;;13.23;7.70;;;;;;;19.56;100.00;101439.19;6246607;22;20368;-86
2023/06/15 08:29:11;;;;;;;15.73;8.23;;;;;;;19.73;100.00;101443.06;6245112;23;20004;-85
2023/06/15 08:31:37;;;;;;;15.38;8.02;;;;;;;19.98;100.00;101442.28;6195356;23;20464;-85
2023/06/15 08:34:02;;;;;;;13.73;7.97;;;;;;;20.19;100.00;101441.03;6245817;23;20000;-85
2023/06/15 08:36:31;;;;;;;12.77;8.10;;;;;;;20.50;100.00;101442.88;6220301;23;20439;-85
2023/06/15 08:38:56;;;;;;;9.35;6.97;;;;;;;21.02;100.00;101440.66;6246868;22;20000;-85
2023/06/15 08:41:22;;;;;;;12.85;7.72;;;;;;;21.56;100.00;101440.81;6245197;23;20054;-85
2023/06/15 08:43:49;;;;;;;13.60;7.57;;;;;;;21.90;100.00;101436.53;6194861;23;20088;-85
2023/06/15 08:46:15;;;;;;;9.65;7.45;;;;;;;21.97;100.00;101438.34;6245218;23;20087;-85
2023/06/15 08:48:42;;;;;;;11.85;7.13;;;;;;;22.03;100.00;101438.22;6220028;23;20011;-85
2023/06/15 08:51:12;;;;;;;9.88;6.68;;;;;;;22.24;100.00;101445.06;6219888;23;20008;-85
2023/06/15 08:53:40;;;;;;;11.65;7.20;;;;;;;22.34;100.00;101441.75;6246174;22;20384;-84
2023/06/15 08:56:10;;;;;;;10.95;7.43;;;;;;;22.76;99.96;101447.09;6245144;23;20000;-83
2023/06/15 08:58:36;;;;;;;13.35;7.75;;;;;;;22.99;95.70;101448.97;6220174;23;20127;-84
2023/06/15 09:01:02;;;;;;;12.93;7.95;;;;;;;23.00;91.92;101436.97;6219622;23;20396;-85
2023/06/15 09:03:27;;;;;;;7.68;6.15;;;;;;;23.24;88.94;101438.53;6245111;23;20012;-84
2023/06/15 09:05:53;;;;;;;10.02;7.10;;;;;;;23.33;87.92;101427.19;6219845;23;20012;-84
2023/06/15 09:08:19;;;;;;;10.05;7.47;;;;;;;23.46;82.64;101435.13;6246301;23;20000;-85
2023/06/15 09:10:44;;;;;;;11.32;7.57;;;;;;;23.77;81.90;101446.72;6219537;23;20499;-85
2023/06/15 09:13:17;;;;;;;10.07;7.25;;;;;;;24.03;79.13;101446.06;6245107;23;20055;-85
2023/06/15 09:15:50;;;;;;;11.07;7.43;;;;;;;24.41;77.30;101451.88;6244459;23;20007;-85
2023/06/15 09:18:16;;;;;;;11.00;7.78;;;;;;;24.88;75.22;101444.06;6244859;23;20011;-85
2023/06/15 09:20:41;;;;;;;9.00;6.68;;;;;;;25.22;72.58;101435.72;6245517;23;20004;-90
2023/06/15 09:23:11;;;;;;;9.27;7.72;;;;;;;25.61;69.64;101449.34;6245382;23;20341;-90
2023/06/15 09:25:37;;;;;;;9.02;6.82;;;;;;;25.80;64.77;101441.53;6170403;23;20091;-90
2023/06/15 09:28:07;;;;;;;9.57;7.22;;;;;;;26.00;63.23;101443.69;6194911;23;20377;-88
2023/06/15 09:30:40;;;;;;;10.68;7.30;;;;;;;26.42;59.70;101442.91;6219973;23;20066;-90
2023/06/15 09:33:12;;;;;;;;;;;;;;;26.42;57.63;101446.50;6245857;23;20364;-88
2023/06/15 09:35:54;;;;;;;11.13;7.85;;;;;;;26.38;58.09;101441.78;6246030;23;19904;-88
2023/06/15 09:38:20;;;;;;;10.98;7.22;;;;;;;26.47;59.01;101440.19;6220853;23;20008;-90
2023/06/15 09:40:46;;;;;;;9.48;6.90;;;;;;;26.27;57.05;101425.16;6221154;23;20325;-89
2023/06/15 09:43:13;;;;;;;8.65;6.70;;;;;;;26.26;58.18;101444.72;6221781;23;20004;-88
2023/06/15 09:45:51;;;;;;;10.18;6.68;;;;;;;26.47;57.45;101449.28;6197116;23;20014;-89
2023/06/15 09:48:17;;;;;;;11.18;7.53;;;;;;;26.53;56.71;101450.19;6197338;23;20018;-89
2023/06/15 09:50:43;;;;;;;12.07;7.28;;;;;;;26.92;54.81;101441.59;6222477;23;20016;-87
2023/06/15 09:53:12;;;;;;;9.75;7.40;;;;;;;27.44;53.77;101445.38;6197577;23;20031;-88
2023/06/15 09:55:43;;;;;;;9.98;6.60;;;;;;;28.30;49.92;101447.41;6222767;23;20000;-87
2023/06/15 09:58:10;;;;;;;10.05;7.85;;;;;;;30.53;45.41;101444.84;6248101;23;20009;-85
2023/06/15 10:00:36;;;;;;;9.13;7.80;;;;;;;30.98;43.12;101451.84;6197694;23;20008;-89
2023/06/15 10:03:03;;;;;;;9.43;7.55;;;;;;;30.75;42.50;101441.53;6222679;23;20004;-86
2023/06/15 10:05:32;;;;;;;8.55;6.20;;;;;;;30.18;42.17;101453.19;6198536;23;20428;-88
2023/06/15 10:08:01;;;;;;;10.15;8.15;;;;;;;29.53;43.86;101449.78;6248703;23;20036;-86
2023/06/15 10:10:28;;;;;;;11.88;8.50;;;;;;;28.66;45.12;101450.16;6249149;23;20012;-88
2023/06/15 10:12:55;;;;;;;9.65;8.65;;;;;;;28.42;45.93;101436.03;6248749;23;20000;-86
2023/06/15 10:15:21;;;;;;;9.63;7.57;;;;;;;30.41;42.63;101450.81;6197839;23;20493;-86
2023/06/15 10:17:48;;;;;;;9.85;8.48;;;;;;;32.30;38.66;101452.97;6198237;23;20011;-85
2023/06/15 10:20:19;;;;;;;11.23;8.15;;;;;;;32.39;37.65;101449.19;6248606;23;20004;-87
2023/06/15 10:22:50;;;;;;;10.38;8.55;;;;;;;32.72;36.54;101426.88;6247273;23;20076;-86
2023/06/15 10:25:16;;;;;;;6.55;5.78;;;;;;;34.41;32.94;101438.88;6246309;23;20481;-85
2023/06/15 10:27:43;;;;;;;6.53;5.80;;;;;;;35.41;31.70;101435.41;6247751;23;20008;-86
2023/06/15 10:30:35;;;;;;;11.07;8.40;;;;;;;33.78;33.55;101435.16;6252649;23;20485;-82
2023/06/15 10:33:27;;;;;;;10.77;8.23;;;;;;;34.68;32.86;101441.47;6212439;23;20031;-85
2023/06/15 10:35:58;;;;;;;9.88;8.88;;;;;;;35.11;32.62;101446.38;6222931;23;20337;-87
2023/06/15 10:38:38;;;;;;;9.73;8.40;;;;;;;35.76;30.44;101441.84;6247876;23;20011;-87
2023/06/15 10:41:05;;;;;;;10.68;8.68;;;;;;;35.36;31.03;101447.59;6197047;23;20429;-86
2023/06/15 10:43:31;;;;;;;9.48;8.25;;;;;;;34.62;33.12;101448.34;6220969;23;20058;-87
2023/06/15 10:45:57;;;;;;;8.80;7.90;;;;;;;34.02;34.32;101435.66;6196238;23;20008;-86
2023/06/15 10:48:29;;;;;;;8.20;7.25;;;;;;;32.84;36.70;101441.09;6197033;23;20042;-86
2023/06/15 10:51:06;;;;;;;8.73;7.82;;;;;;;31.42;37.72;101422.94;6196903;23;20102;-87
2023/06/15 10:53:41;;;;;;;9.30;7.40;;;;;;;30.79;40.09;101440.66;6221156;23;20038;-87
2023/06/15 10:56:19;;;;;;;9.00;8.10;;;;;;;30.10;40.95;101436.38;6196708;23;20107;-86
2023/06/15 10:58:55;;;;;;;9.63;7.55;;;;;;;29.59;42.28;101420.94;6221370;23;20413;-86
2023/06/15 11:01:32;;;;;;;10.38;8.20;;;;;;;29.25;42.99;101423.63;6220917;23;20016;-85
2023/06/15 11:03:59;;;;;;;10.60;8.60;;;;;;;28.51;43.60;101428.06;6246869;23;20015;-85
2023/06/15 11:06:36;;;;;;;10.93;8.13;;;;;;;27.95;44.66;101426.16;6248042;22;20010;-84
2023/06/15 11:09:07;;;;;;;11.90;8.45;;;;;;;28.30;44.85;101433.56;6247044;23;20000;-87
2023/06/15 11:11:36;;;;;;;10.60;8.90;;;;;;;30.10;41.67;101426.09;6222154;23;20012;-87